createdAt,value
2019-05-02T00:01:22.302Z,4.58
2019-05-02T00:03:51.191Z,4.43
2019-05-02T00:06:20.905Z,4.58
2019-05-02T00:08:50.425Z,4.37
2019-05-02T00:11:19.795Z,7.50
2019-05-02T00:13:49.200Z,7.53
2019-05-02T00:16:18.712Z,6.25
2019-05-02T00:18:48.430Z,4.27
2019-05-02T00:21:17.425Z,4.12
2019-05-02T00:23:46.464Z,4.87
2019-05-02T00:26:15.413Z,5.87
2019-05-02T00:28:47.908Z,5.67
2019-05-02T00:31:14.939Z,7.03
2019-05-02T00:33:43.829Z,5.30
2019-05-02T00:36:12.717Z,7.70
2019-05-02T00:38:41.608Z,6.10
2019-05-02T00:41:11.526Z,8.38
2019-05-02T00:43:40.517Z,7.17
2019-05-02T00:46:09.817Z,4.53
2019-05-02T00:48:46.388Z,7.53
2019-05-02T00:51:15.279Z,5.42
2019-05-02T00:53:48.104Z,6.73
2019-05-02T00:56:14.906Z,5.70
2019-05-02T00:58:43.795Z,4.60
2019-05-02T01:01:24.268Z,4.67
2019-05-02T01:03:53.793Z,3.70
2019-05-02T01:06:22.759Z,4.67
2019-05-02T01:08:51.650Z,6.13
2019-05-02T01:11:21.973Z,4.92
2019-05-02T01:13:55.676Z,8.13
2019-05-02T01:16:21.599Z,6.57
2019-05-02T01:18:50.497Z,4.00
2019-05-02T01:21:19.384Z,4.70
2019-05-02T01:23:48.278Z,5.77
2019-05-02T01:26:17.172Z,10.40
2019-05-02T01:28:54.279Z,5.73
2019-05-02T01:31:40.550Z,4.62
2019-05-02T01:34:27.155Z,4.53
2019-05-02T01:37:03.419Z,3.60
2019-05-02T01:39:32.414Z,5.13
2019-05-02T01:42:04.212Z,5.23
2019-05-02T01:44:36.427Z,5.50
2019-05-02T01:47:02.464Z,7.97
2019-05-02T01:49:31.459Z,4.40
2019-05-02T01:52:00.352Z,3.67
2019-05-02T01:54:29.241Z,5.00
2019-05-02T01:56:58.134Z,5.00
2019-05-02T01:59:29.131Z,7.00
2019-05-02T02:01:59.058Z,5.80
2019-05-02T02:04:27.979Z,4.97
2019-05-02T02:06:56.869Z,7.93
2019-05-02T02:09:25.761Z,4.40
2019-05-02T02:11:54.652Z,8.97
2019-05-02T02:14:23.542Z,4.35
2019-05-02T02:16:52.433Z,5.03
2019-05-02T02:19:22.860Z,5.17
2019-05-02T02:22:02.949Z,4.73
2019-05-02T02:24:33.801Z,4.93
2019-05-02T02:27:02.745Z,10.80
2019-05-02T02:29:31.636Z,7.33
2019-05-02T02:32:00.529Z,7.73
2019-05-02T02:34:32.110Z,4.97
2019-05-02T02:37:05.419Z,5.63
2019-05-02T02:39:30.584Z,6.70
2019-05-02T02:41:59.473Z,5.37
2019-05-02T02:44:33.860Z,6.65
2019-05-02T02:47:00.432Z,6.23
2019-05-02T02:49:29.423Z,5.67
2019-05-02T02:52:04.835Z,4.93
2019-05-02T02:54:30.481Z,10.67
2019-05-02T02:56:59.473Z,5.03
2019-05-02T02:59:28.448Z,4.37
2019-05-02T03:02:08.964Z,8.40
2019-05-02T03:04:27.887Z,3.90
2019-05-02T03:06:57.294Z,7.83
2019-05-02T03:09:28.506Z,6.53
2019-05-02T03:12:14.356Z,5.63
2019-05-02T03:14:47.314Z,7.47
2019-05-02T03:17:20.527Z,5.37
2019-05-02T03:19:46.120Z,5.57
2019-05-02T03:22:15.016Z,5.73
2019-05-02T03:24:46.646Z,4.83
2019-05-02T03:27:16.975Z,5.85
2019-05-02T03:29:45.889Z,4.07
2019-05-02T03:32:30.514Z,3.63
2019-05-02T03:34:51.659Z,7.17
2019-05-02T03:37:17.064Z,5.33
2019-05-02T03:39:49.562Z,5.03
2019-05-02T03:42:16.581Z,6.77
2019-05-02T03:44:54.639Z,7.90
2019-05-02T03:47:16.217Z,4.28
2019-05-02T03:49:49.007Z,4.83
2019-05-02T03:52:15.735Z,4.00
2019-05-02T03:54:50.142Z,7.07
2019-05-02T03:57:15.773Z,7.08
2019-05-02T03:59:44.777Z,4.47
2019-05-02T04:02:20.468Z,5.17
2019-05-02T04:04:44.802Z,5.23
2019-05-02T04:07:14.108Z,7.47
2019-05-02T04:09:43.095Z,4.57
2019-05-02T04:12:18.990Z,4.83
2019-05-02T04:14:43.887Z,3.53
2019-05-02T04:17:13.280Z,5.57
2019-05-02T04:19:42.881Z,8.07
2019-05-02T04:22:13.908Z,5.22
2019-05-02T04:24:47.755Z,5.33
2019-05-02T04:27:13.922Z,4.03
2019-05-02T04:29:42.938Z,6.17
2019-05-02T04:32:14.503Z,4.00
2019-05-02T04:34:49.161Z,6.77
2019-05-02T04:37:13.495Z,5.03
2019-05-02T04:39:43.824Z,4.87
2019-05-02T04:42:21.919Z,4.33
2019-05-02T04:45:11.278Z,5.22
2019-05-02T04:47:20.799Z,5.95
2019-05-02T04:49:49.109Z,4.53
2019-05-02T04:52:18.273Z,3.70
2019-05-02T04:54:48.755Z,5.33
2019-05-02T04:57:18.717Z,4.67
2019-05-02T04:59:50.401Z,8.93
2019-05-02T05:02:20.914Z,6.63
2019-05-02T05:04:49.544Z,6.77
2019-05-02T05:07:18.638Z,4.43
2019-05-02T05:09:57.182Z,7.73
2019-05-02T05:12:19.427Z,5.65
2019-05-02T05:14:48.359Z,6.20
2019-05-02T05:17:19.754Z,4.37
2019-05-02T05:19:48.770Z,6.37
2019-05-02T05:22:18.486Z,6.35
2019-05-02T05:24:49.149Z,3.33
2019-05-02T05:27:22.514Z,12.75
2019-05-02T05:29:48.887Z,8.23
2019-05-02T05:32:19.301Z,5.13
2019-05-02T05:34:48.194Z,3.77
2019-05-02T05:37:20.260Z,4.40
2019-05-02T05:39:52.503Z,6.47
2019-05-02T05:42:23.297Z,3.22
2019-05-02T05:44:50.417Z,7.87
2019-05-02T05:47:21.423Z,4.50
2019-05-02T05:49:52.163Z,6.77
2019-05-02T05:52:20.980Z,4.10
2019-05-02T05:54:49.881Z,4.67
2019-05-02T05:57:21.083Z,4.03
2019-05-02T05:59:49.292Z,7.27
2019-05-02T06:02:18.481Z,5.23
2019-05-02T06:04:50.125Z,10.07
2019-05-02T06:07:20.154Z,11.95
2019-05-02T06:09:48.853Z,6.67
2019-05-02T06:12:17.739Z,7.85
2019-05-02T06:14:46.713Z,5.97
2019-05-02T06:17:17.062Z,9.17
2019-05-02T06:19:48.190Z,5.87
2019-05-02T06:22:24.221Z,6.75
2019-05-02T06:24:50.917Z,6.60
2019-05-02T06:27:20.886Z,6.93
2019-05-02T06:29:51.289Z,7.73
2019-05-02T06:32:20.556Z,5.87
2019-05-02T06:34:49.637Z,9.63
2019-05-02T06:37:18.533Z,10.80
2019-05-02T06:39:47.423Z,5.67
2019-05-02T06:42:16.315Z,9.30
2019-05-02T06:44:45.205Z,12.20
2019-05-02T06:47:14.095Z,8.60
2019-05-02T06:49:42.986Z,8.77
2019-05-02T06:52:12.287Z,14.10
2019-05-02T06:54:41.178Z,8.77
2019-05-02T06:57:10.888Z,7.83
2019-05-02T06:59:39.778Z,9.80
2019-05-02T07:02:09.112Z,14.18
2019-05-02T07:04:37.972Z,9.97
2019-05-02T07:07:06.972Z,6.23
2019-05-02T07:09:40.941Z,8.33
2019-05-02T07:12:09.846Z,9.47
2019-05-02T07:14:37.434Z,10.03
2019-05-02T07:17:31.438Z,10.20
2019-05-02T07:20:04.084Z,11.13
2019-05-02T07:22:33.249Z,4.77
2019-05-02T07:25:06.993Z,10.63
2019-05-02T07:27:35.443Z,13.17
2019-05-02T07:30:05.639Z,6.43
2019-05-02T07:32:34.482Z,9.20
2019-05-02T07:35:03.476Z,10.93
2019-05-02T07:37:32.368Z,10.73
2019-05-02T07:40:02.693Z,11.53
2019-05-02T07:42:31.585Z,9.97
2019-05-02T07:45:04.272Z,8.00
2019-05-02T07:47:34.582Z,7.53
2019-05-02T07:50:05.325Z,15.63
2019-05-02T07:52:33.616Z,8.90
2019-05-02T07:55:02.706Z,11.87
2019-05-02T07:57:32.379Z,8.87
2019-05-02T08:00:02.723Z,10.40
2019-05-02T08:02:31.725Z,11.57
2019-05-02T08:05:00.617Z,11.00
2019-05-02T08:07:34.278Z,8.70
2019-05-02T08:10:00.144Z,9.20
2019-05-02T08:12:29.057Z,9.10
2019-05-02T08:15:00.338Z,8.33
2019-05-02T08:17:28.666Z,10.13
2019-05-02T08:19:57.548Z,8.37
2019-05-02T08:22:26.437Z,7.93
2019-05-02T08:24:55.328Z,9.07
2019-05-02T08:27:29.279Z,10.90
2019-05-02T08:30:00.041Z,6.90
2019-05-02T08:32:26.814Z,11.77
2019-05-02T08:34:58.162Z,9.03
2019-05-02T08:37:27.055Z,9.63
2019-05-02T08:39:55.946Z,11.27
2019-05-02T08:42:27.651Z,12.82
2019-05-02T08:44:56.389Z,10.40
2019-05-02T08:47:28.533Z,10.15
2019-05-02T08:49:58.164Z,9.20
2019-05-02T08:52:27.056Z,9.20
2019-05-02T08:54:55.951Z,13.47
2019-05-02T08:57:24.938Z,10.38
2019-05-02T08:59:55.348Z,11.33
2019-05-02T09:02:26.043Z,11.25
2019-05-02T09:04:58.782Z,11.33
2019-05-02T09:07:25.809Z,11.48
2019-05-02T09:09:55.557Z,15.60
2019-05-02T09:12:24.637Z,13.05
2019-05-02T09:14:53.529Z,12.20
2019-05-02T09:17:35.165Z,16.23
2019-05-02T09:20:02.372Z,17.27
2019-05-02T09:22:23.954Z,13.03
2019-05-02T09:24:54.418Z,10.73
2019-05-02T09:27:23.311Z,9.70
2019-05-02T09:29:52.200Z,12.17
2019-05-02T09:32:22.721Z,12.73
2019-05-02T09:34:51.925Z,11.30
2019-05-02T09:37:22.644Z,10.17
2019-05-02T09:39:52.528Z,8.75
2019-05-02T09:42:22.906Z,9.33
2019-05-02T09:44:55.730Z,10.27
2019-05-02T09:47:27.508Z,11.30
2019-05-02T09:50:07.808Z,12.53
2019-05-02T09:52:39.462Z,12.43
2019-05-02T09:55:09.423Z,11.77
2019-05-02T09:57:38.423Z,13.17
2019-05-02T10:00:15.021Z,14.20
2019-05-02T10:02:44.025Z,18.23
2019-05-02T10:05:14.472Z,11.88
2019-05-02T10:07:43.370Z,17.70
2019-05-02T10:10:18.760Z,15.03
2019-05-02T10:12:44.109Z,12.87
2019-05-02T10:15:15.212Z,14.58
2019-05-02T10:17:46.722Z,9.77
2019-05-02T10:20:15.192Z,13.62
2019-05-02T10:22:44.186Z,10.53
2019-05-02T10:25:13.890Z,13.40
2019-05-02T10:27:46.018Z,10.73
2019-05-02T10:30:15.894Z,14.07
2019-05-02T10:32:47.179Z,18.30
2019-05-02T10:35:17.952Z,11.55
2019-05-02T10:37:46.844Z,13.53
2019-05-02T10:40:17.269Z,13.68
2019-05-02T10:42:46.264Z,12.27
2019-05-02T10:45:16.875Z,13.28
2019-05-02T10:47:45.786Z,13.37
2019-05-02T10:50:16.524Z,12.10
2019-05-02T10:52:45.411Z,14.33
2019-05-02T10:55:14.609Z,10.87
2019-05-02T10:57:43.503Z,14.43
2019-05-02T11:00:16.296Z,11.43
2019-05-02T11:03:03.299Z,7.97
2019-05-02T11:05:33.725Z,8.37
2019-05-02T11:08:06.256Z,8.80
2019-05-02T11:10:33.350Z,7.97
2019-05-02T11:13:03.777Z,8.40
2019-05-02T11:15:52.527Z,9.70
2019-05-02T11:18:39.384Z,8.88
2019-05-02T11:20:59.153Z,12.00
2019-05-02T11:23:27.338Z,11.53
2019-05-02T11:25:56.293Z,12.37
2019-05-02T11:28:25.183Z,15.00
2019-05-02T11:30:56.992Z,15.20
2019-05-02T11:33:24.603Z,11.55
2019-05-02T11:35:53.686Z,11.83
2019-05-02T11:38:45.608Z,14.27
2019-05-02T11:40:54.767Z,12.83
2019-05-02T11:43:23.651Z,11.03
2019-05-02T11:45:54.172Z,10.40
2019-05-02T11:48:23.172Z,7.90
2019-05-02T11:50:52.423Z,8.33
2019-05-02T11:53:27.013Z,10.68
2019-05-02T11:55:53.263Z,10.23
2019-05-02T11:58:22.963Z,11.07
2019-05-02T12:00:52.443Z,11.57
2019-05-02T12:03:35.436Z,13.43
2019-05-02T12:05:59.543Z,13.30
2019-05-02T12:08:28.437Z,14.83
2019-05-02T12:10:57.324Z,12.63
2019-05-02T12:13:26.215Z,12.77
2019-05-02T12:15:55.110Z,14.27
2019-05-02T12:18:23.997Z,12.17
2019-05-02T12:20:52.901Z,15.30
2019-05-02T12:23:22.629Z,13.60
2019-05-02T12:25:52.142Z,14.07
2019-05-02T12:28:22.906Z,14.65
2019-05-02T12:30:52.058Z,14.33
2019-05-02T12:33:22.587Z,12.97
2019-05-02T12:35:52.500Z,12.53
2019-05-02T12:38:23.136Z,17.23
2019-05-02T12:40:52.247Z,14.78
2019-05-02T12:43:22.873Z,13.93
2019-05-02T12:45:52.801Z,11.90
2019-05-02T12:48:22.122Z,13.65
2019-05-02T12:50:52.779Z,14.60
2019-05-02T12:53:22.061Z,12.57
2019-05-02T12:55:52.743Z,13.13
2019-05-02T12:58:22.032Z,9.65
2019-05-02T13:00:52.882Z,10.40
2019-05-02T13:03:38.345Z,9.45
2019-05-02T13:06:07.249Z,9.37
2019-05-02T13:08:37.763Z,10.30
2019-05-02T13:11:08.232Z,11.00
2019-05-02T13:13:37.185Z,7.80
2019-05-02T13:16:06.618Z,9.93
2019-05-02T13:18:37.460Z,9.77
2019-05-02T13:21:15.091Z,8.70
2019-05-02T13:23:46.269Z,7.47
2019-05-02T13:26:21.843Z,9.53
2019-05-02T13:28:47.177Z,12.90
2019-05-02T13:31:22.335Z,11.00
2019-05-02T13:34:11.715Z,9.70
2019-05-02T13:36:48.015Z,11.20
2019-05-02T13:39:33.579Z,10.30
2019-05-02T13:42:02.574Z,10.03
2019-05-02T13:44:35.974Z,8.70
2019-05-02T13:47:07.932Z,11.47
2019-05-02T13:49:44.656Z,10.70
2019-05-02T13:52:07.966Z,7.70
2019-05-02T13:54:37.575Z,9.17
2019-05-02T13:57:06.774Z,5.60
2019-05-02T13:59:35.665Z,10.43
2019-05-02T14:02:06.833Z,7.40
2019-05-02T14:04:35.701Z,7.87
2019-05-02T14:07:07.566Z,11.60
2019-05-02T14:09:41.557Z,11.07
2019-05-02T14:12:12.822Z,7.35
2019-05-02T14:14:42.440Z,8.10
2019-05-02T14:17:11.831Z,12.60
2019-05-02T14:19:42.083Z,7.37
2019-05-02T14:22:12.878Z,9.13
2019-05-02T14:24:42.209Z,5.40
2019-05-02T14:27:12.894Z,4.63
2019-05-02T14:29:42.428Z,5.53
2019-05-02T14:32:21.435Z,5.75
2019-05-02T14:34:49.018Z,3.10
2019-05-02T14:37:17.909Z,5.33
2019-05-02T14:39:48.334Z,2.63
2019-05-02T14:42:25.039Z,3.37
2019-05-02T14:45:05.597Z,2.00
2019-05-02T14:47:19.650Z,2.33
2019-05-02T14:49:48.715Z,4.47
2019-05-02T14:52:17.605Z,4.03
2019-05-02T14:54:48.030Z,2.17
2019-05-02T14:57:25.495Z,4.57
2019-05-02T14:59:50.239Z,1.17
2019-05-02T15:02:22.868Z,2.60
2019-05-02T15:04:52.259Z,2.47
2019-05-02T15:07:24.840Z,2.57
2019-05-02T15:09:52.568Z,1.73
2019-05-02T15:12:22.223Z,2.33
2019-05-02T15:14:57.356Z,1.70
2019-05-02T15:17:22.705Z,2.33
2019-05-02T15:19:52.716Z,1.50
2019-05-02T15:22:22.794Z,1.90
2019-05-02T15:24:52.968Z,1.67
2019-05-02T15:27:22.459Z,1.27
2019-05-02T15:29:55.341Z,1.00
2019-05-02T15:32:42.851Z,1.55
2019-05-02T15:35:12.985Z,2.08
2019-05-02T15:37:41.992Z,2.13
2019-05-02T15:42:43.871Z,3.37
2019-05-02T15:45:13.164Z,2.43
2019-05-02T15:47:45.291Z,3.73
2019-05-02T15:50:14.813Z,1.17
2019-05-02T15:52:46.187Z,2.80
2019-05-02T15:55:15.388Z,7.58
2019-05-02T15:57:46.454Z,2.57
2019-05-02T16:00:23.201Z,4.70
2019-05-02T16:02:48.204Z,4.93
2019-05-02T16:05:17.094Z,3.62
2019-05-02T16:07:46.918Z,13.27
2019-05-02T16:10:15.900Z,8.03
2019-05-02T16:12:46.331Z,4.17
2019-05-02T16:15:21.464Z,5.13
2019-05-02T16:17:46.157Z,3.30
2019-05-02T16:20:24.456Z,10.72
2019-05-02T16:22:53.362Z,3.80
2019-05-02T16:25:24.512Z,6.93
2019-05-02T16:27:57.330Z,3.40
2019-05-02T16:30:25.255Z,3.00
2019-05-02T16:32:55.685Z,4.10
2019-05-02T16:35:26.112Z,3.77
2019-05-02T16:37:56.078Z,4.33
2019-05-02T16:40:29.613Z,4.83
2019-05-02T16:42:57.600Z,3.70
2019-05-02T16:45:27.108Z,2.50
2019-05-02T16:48:00.623Z,1.87
2019-05-02T16:50:27.639Z,2.17
2019-05-02T16:52:58.899Z,4.60
2019-05-02T16:55:27.893Z,3.43
2019-05-02T16:58:05.183Z,3.30
2019-05-02T17:00:27.903Z,3.27
2019-05-02T17:02:57.465Z,3.17
2019-05-02T17:05:26.628Z,3.33
2019-05-02T17:07:57.073Z,1.67
2019-05-02T17:10:27.483Z,1.87
2019-05-02T17:12:59.932Z,1.80
2019-05-02T17:15:31.141Z,3.97
2019-05-02T17:17:59.176Z,3.10
2019-05-02T17:20:29.397Z,3.00
2019-05-02T17:23:05.155Z,3.23
2019-05-02T17:25:29.032Z,2.40
2019-05-02T17:28:02.516Z,3.50
2019-05-02T17:30:33.671Z,4.97
2019-05-02T17:32:58.975Z,2.20
2019-05-02T17:35:27.966Z,7.33
2019-05-02T17:37:56.962Z,4.50
2019-05-02T17:40:26.253Z,2.87
2019-05-02T17:42:57.125Z,5.00
2019-05-02T17:45:26.091Z,3.62
2019-05-02T17:47:54.988Z,2.50
2019-05-02T17:50:42.351Z,2.47
2019-05-02T17:53:12.223Z,3.20
2019-05-02T17:55:43.910Z,4.20
2019-05-02T17:58:14.146Z,2.42
2019-05-02T18:00:52.305Z,4.13
2019-05-02T18:03:24.230Z,1.40
2019-05-02T18:05:50.196Z,2.03
2019-05-02T18:08:21.881Z,1.90
2019-05-02T18:10:58.057Z,2.30
2019-05-02T18:13:22.794Z,1.80
2019-05-02T18:15:53.511Z,1.83
2019-05-02T18:18:22.639Z,2.02
2019-05-02T18:20:52.864Z,2.63
2019-05-02T18:23:27.526Z,3.08
2019-05-02T18:25:57.538Z,1.77
2019-05-02T18:28:26.375Z,2.50
2019-05-02T18:31:01.899Z,2.70
2019-05-02T18:33:27.760Z,2.37
2019-05-02T18:35:56.651Z,3.37
2019-05-02T18:38:25.544Z,2.58
2019-05-02T18:40:55.409Z,2.30
2019-05-02T18:43:24.655Z,5.23
2019-05-02T18:45:53.548Z,4.40
2019-05-02T18:48:22.436Z,2.43
2019-05-02T18:50:52.642Z,2.57
2019-05-02T18:53:27.003Z,3.03
2019-05-02T18:55:56.760Z,2.90
2019-05-02T18:58:24.454Z,3.85
2019-05-02T19:00:53.447Z,4.23
2019-05-02T19:03:22.966Z,2.50
2019-05-02T19:05:57.336Z,6.83
2019-05-02T19:08:31.150Z,4.13
2019-05-02T19:11:04.726Z,4.37
2019-05-02T19:13:25.796Z,3.77
2019-05-02T19:15:54.787Z,4.60
2019-05-02T19:18:23.775Z,8.05
2019-05-02T19:20:57.586Z,4.60
2019-05-02T19:23:26.310Z,6.20
2019-05-02T19:25:55.389Z,4.57
2019-05-02T19:28:34.627Z,6.62
2019-05-02T19:31:06.730Z,6.33
2019-05-02T19:33:37.386Z,7.50
2019-05-02T19:36:04.653Z,4.67
2019-05-02T19:38:34.821Z,6.67
2019-05-02T19:41:08.814Z,3.47
2019-05-02T19:43:35.067Z,2.77
2019-05-02T19:46:04.314Z,3.27
2019-05-02T19:48:36.980Z,2.60
2019-05-02T19:51:03.939Z,5.27
2019-05-02T19:53:33.443Z,3.27
2019-05-02T19:56:03.034Z,3.30
2019-05-02T19:58:36.803Z,3.53
2019-05-02T20:01:05.850Z,5.77
2019-05-02T20:03:34.739Z,5.33
2019-05-02T20:06:06.066Z,8.17
2019-05-02T20:08:34.571Z,6.33
2019-05-02T20:11:03.462Z,5.27
2019-05-02T20:13:32.757Z,5.90
2019-05-02T20:16:15.543Z,3.47
2019-05-02T20:18:47.111Z,3.67
2019-05-02T20:21:24.213Z,5.00
2019-05-02T20:23:49.731Z,4.23
2019-05-02T20:26:18.592Z,5.08
2019-05-02T20:28:47.410Z,5.27
2019-05-02T20:31:16.304Z,3.90
2019-05-02T20:33:45.192Z,7.17
2019-05-02T20:36:14.085Z,3.30
2019-05-02T20:38:42.976Z,4.23
2019-05-02T20:41:12.869Z,7.72
2019-05-02T20:43:44.434Z,2.83
2019-05-02T20:46:12.927Z,5.05
2019-05-02T20:48:42.013Z,3.73
2019-05-02T20:51:12.123Z,4.13
2019-05-02T20:53:43.094Z,3.70
2019-05-02T20:56:13.286Z,3.57
2019-05-02T20:58:42.298Z,4.83
2019-05-02T21:01:12.360Z,5.28
2019-05-02T21:03:42.950Z,7.10
2019-05-02T21:06:14.449Z,3.73
2019-05-02T21:08:44.827Z,3.83
2019-05-02T21:11:14.333Z,3.07
2019-05-02T21:13:43.229Z,4.57
2019-05-02T21:16:12.524Z,3.67
2019-05-02T21:18:42.250Z,4.97
2019-05-02T21:21:12.618Z,4.27
2019-05-02T21:23:47.044Z,4.53
2019-05-02T21:26:12.390Z,6.95
2019-05-02T21:28:42.817Z,4.00
2019-05-02T21:31:12.261Z,3.62
2019-05-02T21:33:42.749Z,3.30
2019-05-02T21:36:12.572Z,3.83
2019-05-02T21:38:42.740Z,4.33
2019-05-02T21:41:12.699Z,4.12
2019-05-02T21:43:42.505Z,4.43
2019-05-02T21:46:11.916Z,3.67
2019-05-02T21:48:42.071Z,4.83
2019-05-02T21:51:12.975Z,4.03
2019-05-02T21:53:55.033Z,3.90
2019-05-02T21:56:33.702Z,4.67
2019-05-02T21:59:07.095Z,5.20
2019-05-02T22:01:42.055Z,5.77
2019-05-02T22:04:13.146Z,4.47
2019-05-02T22:06:42.856Z,5.37
2019-05-02T22:09:12.590Z,5.23
2019-05-02T22:11:42.908Z,5.73
2019-05-02T22:14:13.362Z,6.03
2019-05-02T22:16:42.749Z,8.77
2019-05-02T22:19:12.766Z,6.80
2019-05-02T22:21:43.045Z,5.60
2019-05-02T22:24:14.407Z,9.58
2019-05-02T22:26:43.664Z,7.53
2019-05-02T22:29:12.647Z,9.00
2019-05-02T22:31:43.082Z,7.97
2019-05-02T22:34:12.911Z,10.07
2019-05-02T22:36:42.684Z,7.07
2019-05-02T22:39:31.720Z,7.40
2019-05-02T22:42:01.974Z,5.83
2019-05-02T22:44:32.510Z,7.20
2019-05-02T22:47:01.590Z,7.97
2019-05-02T22:49:31.858Z,7.23
2019-05-02T22:52:01.116Z,9.47
2019-05-02T22:54:33.494Z,7.97
2019-05-02T22:57:02.600Z,7.00
2019-05-02T22:59:31.786Z,9.00
2019-05-02T23:02:02.135Z,7.27
2019-05-02T23:04:32.528Z,9.73
2019-05-02T23:07:02.410Z,8.20
2019-05-02T23:09:31.441Z,9.53
2019-05-02T23:12:02.602Z,9.23
2019-05-02T23:14:32.512Z,8.73
2019-05-02T23:17:02.134Z,7.63
2019-05-02T23:19:31.684Z,8.43
2019-05-02T23:22:02.041Z,8.87
2019-05-02T23:24:39.187Z,8.63
2019-05-02T23:27:16.727Z,9.67
2019-05-02T23:29:45.609Z,9.23
2019-05-02T23:32:14.603Z,9.97
2019-05-02T23:34:43.504Z,9.03
2019-05-02T23:37:12.795Z,10.57
2019-05-02T23:39:41.854Z,10.93
2019-05-02T23:42:13.624Z,8.85
2019-05-02T23:44:42.644Z,9.63
2019-05-02T23:47:11.829Z,9.83
2019-05-02T23:49:42.581Z,10.57
2019-05-02T23:52:12.188Z,11.40
2019-05-02T23:54:49.994Z,10.60
2019-05-02T23:57:12.251Z,11.50
2019-05-02T23:59:42.751Z,12.47
